Timeline UpdatesTrip UpdatesNews PostsPvt PostsTravel TipsAdmin PostsConv PostsFollowed PostsChat RequestsBlog PostsPNR Posts

Disclaimer
Search
 
 
Wed Apr 16, 2014 09:53:53 ISTHomeTrainsΣChainsAtlasPNRForumGalleryNewsFAQTripsMembersLoginFeedback
No Recent News for this Train
Other Trains in the News **new
Latest...
9 TRIP SPECIAL. Booking Open!!!!
Fri May 03, 2013 (12:26PM)
⇐ Return Journey: Train# 04701

04702/Udhna - Bikaner AC Summer Special

TRAIN IS CANCELLED
Change Departure Station:
Change Arrival Station:
Post a Train Travel TipPost a Train Travel Tip **new
Post a Comment/Question/Picture/VideoPost a Comment/Question/Picture/Video
Inaugural Run
Tue Apr 30, 2013
Pantry/Catering
???
RSA - Rake Sharing
22475/22476
Rake/Coach Composition
AC First Class: 1, AC 2 Tier: 4, AC 3 Tier: 8, Power Car: 2
Loco
News    PNR    Forum    Time-Table    Availability    Fare Chart    Map    Arr/Dep History    Trips    Gallery    ΣChains    X/O    Timeline    
Travel Time: 20h 15m    14 halts    Distance: 970 km    Avg Speed: 47 km/hr
Type: Mail/Express
Zone: NWR/North Western
Departs @ 22:00
Platform# ???
  T    
Udhna Junction/UDN 
Arrives @ 18:15 +1 night
Platform# ???
   W   
Bikaner Junction/BKN 

14 halts. 149 intermediate Stations between Udhna Junction and Bikaner Junction

Hide intermediate Stations  

#CodeStation NameX/OArrivesAvgDepartsAvgHaltPFDay#KmSpeedElevZoneAddress
1UDN»Udhna Junction (3)»  -22:00---10.01616mWRUdhna 394210, Gujarat
2STSurat (4)  22:15-22:25-10m--14.07419mWRSurat 395001, Gujarat
2.1URNUtran (3)  22:28-22:28-  17.9 7415mWRSurat, Gujarat
2.2KSEKosad (2)  22:31-22:31-  111.1 7417mWRSurat, Gujarat
2.3GTXGothangam (2)  22:34-22:34-  114.7 7419mWRAmroli Sayan Rd, Gujarat
2.4SYNSayan (3)  22:36-22:36-  117.7 7421mWRSayan Satellite town, Gujarat
2.5KDSDKudsad (2)  22:42-22:42-  124.8 7418mWRNH 8, Gujarat
2.6KIMKim (2)  22:44-22:44-  127.6 7418mWRNH 8, Gujarat
2.7KSBKosamba Junction (3)  22:50-22:50-  135.4 7430mWRKosamba, Gujarat
2.8HATHathuran (2)  22:54-22:54-  139.8 7432mWRKosamba, Gujarat
2.9PAOPanoli (3)  22:57-22:57-  143.6 7429mWRPanoli, Gujarat
2.10SNJLSanjali (2)  23:01-23:01-  147.8 7423mWRPanoli, Gujarat
2.11AKVAnkleshwar Junction (4)  23:05-23:05-  153.9 7419mWRAnkleshwar, Gujarat
3BHBharuch Junction (5)  23:13-23:15-2m--163.37719mWRBharuch, Gujarat
3.1CVJChavaj (2)  23:19-23:19-  168.3 7720mWRBharuch, Gujarat
3.2NIUNabipur (3)  23:24-23:24-  175.3 7724mWRNabipur, Gujarat
3.3VREVarediya (4)  23:30-23:30-  182.1 7721mWRNH 8, Gujarat
3.4PLJPalej (4)  23:35-23:35-  188.7 7729mWRPalej, Gujarat
3.5LKDLakodara (4)  23:40-23:40-  195.9 7726mWRNH 8, Gujarat
3.6MYGLMiyagam Karjan Junction NG  23:47-23:47-  1103.9 770mWRKarjan, Gujarat
3.7MYGMiyagam Karjan (2)  23:47-23:47-  1104.0 7729mWRKarjan, Gujarat
3.8KSPRKashipura Sarar (2)  23:53-23:53-  1111.7 7726mWRGIDC Industrial Area, Gujarat
3.9ITAItola (4)  23:56-23:56-  1115.6 7727mWRNational Highway 8, Gujarat
3.10VRMVarnama (2)  23:59-23:59-  1119.5 7728mWRVadodara, Gujarat
3.11MPRMakarpura (4)  00:03-00:03-  2125.1 7730mWRVadodara, Gujarat
3.12VSVishvamitri (4)  00:08-00:08-  2130.8 7730mWRVadodara, Gujarat
4BRCVadodara Junction (7)  00:10-00:15-5m--2133.85436mWRVadodara, Gujarat
4.1BRGYVadodara D Cabin  00:16-00:16-  2134.4 5436mWRVadodara, Gujarat
4.2BJWBajva (3)  00:23-00:23-  2141.1 5438mWRVadodara, Gujarat
4.3KRCAKarachiya Yard  00:25-00:25-  2143.0 5439mWRVadodara, Gujarat
4.4RNORanoli (2)  00:27-00:27-  2144.8 5439mWRVadodara District, Gujarat
4.5NDRNandesari (2)  00:32-00:32-  2149.0 5442mWRNandesari, Gujarat
4.6VDAVasad Junction (3)  00:38-00:38-  2154.0 5440mWRVasad, Gujarat
4.7ADDAdas Road (4)  00:43-00:43-  2158.6 5442mWRNational Highway 8, Gujarat
4.8VXDVadod (3)  00:47-00:47-  2162.7 5444mWRAnand District, Gujarat
5ANNDAnand Junction (6)  00:55-00:57-2m--2169.64944mWRAnand, Gujarat
5.1KBRVKanjari Boriyavi Junction (4)  01:06-01:06-  2177.0 4939mWRKanjari, Gujarat
5.2UTDUtarsanda (4)  01:13-01:13-  2182.5 4940mWRUttarsanda, Gujarat
5.3NDNadiad Junction (4)  01:19-01:19-  2188.0 4937mWRNadiad, Gujarat
5.4GTEGothaj (2)  01:35-01:35-  2200.4 4932mWRState Highway 3, Gujarat
5.5MHDMahemdavad Kheda Road (4)  01:41-01:41-  2205.6 4937mWRMahemdavad, Gujarat
5.6NEPNenpur (2)  01:46-01:46-  2209.8 4935mWRState Highway 3, Gujarat
5.7KANJKanij (3)  01:49-01:49-  2212.6 4939mWRBareja-Barejadi Rd, Gujarat
5.8BJDBarejadi (3)  01:55-01:55-  2217.0 4942mWRBareja-Barejadi Rd, Gujarat
5.9GERGeratpur (2)  01:59-01:59-  2220.4 4944mWRAhmadabad, Gujarat
5.10VTAVatva (4)  02:05-02:05-  2225.6 4949mWRDist. Ahmedabad 382445, Gujarat
5.11MANManinagar (2)  02:11-02:11-  2230.4 4950mWRAhmadabad, Gujarat
5.12KKFKankaria  02:13-02:13-  2231.8 4948mWRAhmedabad, Gujarat
6ADIAhmedabad Junction (12)  02:15-02:40-25m--2233.62251mWRAhmedabad, Gujarat
6.1SBTASabarmati A Cabin  02:48-02:48-  2236.7 2256mWRSabarmati A Cabin, Gujarat
7SBISabarmati Junction (3)  02:55-02:57-2m--2239.14455mWRAhmadabad, Gujarat
7.1SBISSabarmati South  03:01-03:01-  2242.3 4456mWRSabarmati South, Gujarat
7.2CLDYChandlodiya  03:04-03:04-  2244.5 4459mWRAhmedabad, Gujarat
7.3CLDBChandlodiya B  03:07-03:07-  2246.7 4455mWRAhmedabad, Gujarat
7.4KHDKhodiyar  03:17-03:17-  2254.0 4465mWRGandhinagar, Gujarat
7.5SHRDSaij Sertha Road (2)  03:26-03:26-  2260.6 4471mWRJhulasan, Gujarat
7.6KLLKalol (3)  03:32-03:32-  2264.8 4471mWRKalol, Gujarat
7.7CTRLChhatral  03:37-03:37-  2268.3 4472mWRState Highway 133, Gujarat
7.8ENIsand  03:39-03:39-  2270.1 4477mWRKhodiyar, Gujarat
7.9PNPansar  03:42-03:42-  2272.3 4474mWRPalanpur, Gujarat
7.10JULJhulasan (3)  03:46-03:46-  2274.6 4477mWRMehsana, Gujarat
7.11GUSBGhumasan Bg  03:49-03:49-  2277.5 4481mWRChandarda, Gujarat
7.12GUSGhumasan  03:49-03:49-  2277.5 4482mWRState Highway 41, Gujarat
7.13DNWDangarwa  03:55-03:55-  2281.2 4483mWRJagudan, Gujarat
7.14KYSDKaiyal Sedhavi  04:00-04:00-  2285.6 4485mWRState Highway 217, Gujarat
7.15KYSBKaiyal Sedhavi Bg  04:01-04:01-  2285.6 4485mWRLanghanaj, Gujarat
7.16UMNAmbliyasan  04:05-04:05-  2289.0 4490mWRMehsana, Gujarat
7.17JDNMJagudan  04:16-04:16-  2296.8 4490mWRKochva Road, Gujarat
7.18JDNJagudan  04:16-04:16-  2296.8 4490mWRKochva Road, Gujarat
7.19SXSShobhasan  04:22-04:22-  2301.1 4486mWRState Highway 41, Gujarat
7.20MSHMahesana Junction (6)  04:29-04:29-  2306.6 4495mWRMehsana, Gujarat
7.21MSHMMahesana  04:29-04:29-  2306.7 4494mWRMehsana, Gujarat
7.22BHUBhandu Motidau  04:44-04:44-  2317.7 4497mWRMahesana, Gujarat
7.23UARUnawa Aithor  04:53-04:53-  2323.8 44108mWRGujarat State Highway 41, Gujarat
7.24UJAUnjha  04:59-04:59-  2328.5 44116mWRUnjha, Gujarat
7.25KMLIKamli  05:09-05:09-  2335.8 44126mWRChhapi, Gujarat
7.26SIDSiddhpur  05:18-05:18-  2342.2 44136mWRState Highway 41, Gujarat
7.27DRWDharewada  05:25-05:25-  2347.8 44145mWRUnjha, Gujarat
7.28CHPChhapi  05:36-05:36-  2355.4 44169mWRBanaskantha, Gujarat
7.29UMUmardashi  05:47-05:47-  2363.2 44187mWRChitrasani, Gujarat
8PNUPalanpur Junction (5)  05:58-06:00-2m--2371.656216mWRPalanpur, Gujarat
8.1KRJDKarjoda  06:06-06:06-  2377.6 56234mNWRChhapi, Gujarat
8.2CTTChitrasani  06:12-06:12-  2383.1 56225mNWRChitrasani, Gujarat
8.3JTYJethi  06:17-06:17-  2387.5 56212mNWRBANASKANTHA, Gujarat
8.4IQGIqbal Gadh  06:23-06:23-  2393.6 56209mNWRBanaskantha, Gujarat
8.5SZASarotra Road  06:31-06:31-  2401.1 56216mNWRSarotra, Gujarat
8.6SIMShri Amirgadh  06:37-06:37-  2406.5 56229mNWRAmirgadh, Gujarat
8.7MAAMaval  06:46-06:46-  2414.9 56245mNWRNational Highway 14, Rajasthan
9ABRAbu Road (3)  06:56-07:06-10m--2424.253264mNWRSirohi Dist, Rajasthan
9.1MXOMorthala  07:10-07:10-  2427.3 53267mNWRNH 14, Rajasthan
9.2KWIKivarli  07:16-07:16-  2433.2 53281mNWRShri Amirgadh, Rajasthan
9.3BMNBhimana  07:25-07:25-  2441.0 53313mNWRAbu Road, Rajasthan
9.4SRPJSwarupGanj  07:35-07:35-  2449.6 53334mNWRSirohi Road, Rajasthan
9.5BNSBanas  07:44-07:44-  2458.0 53347mNWRSirohi Road, Rajasthan
9.6SOHSirohi Road (2)  07:55-07:55-  2468.1 53369mNWRPindwara, Rajasthan
9.7KVJKeshavganj  08:04-08:04-  2476.0 53393mNWRJawai Bandh, Rajasthan
9.8NANANana  08:14-08:14-  2485.0 53355mNWRNana, Rajasthan
9.9KTRKothar  08:21-08:21-  2491.2 53346mNWRPali, Rajasthan
9.10MOIMori Bera  08:28-08:28-  2497.5 53323mNWRNana, Rajasthan
9.11JWBJawai Bandh  08:39-08:39-  2506.9 53292mNWRPali, Rajasthan
9.12BRLYBiroliya  08:48-08:48-  2515.1 53294mNWRBiroliya Rd, Rajasthan
10FAFalna (2)  08:57-08:59-2m--2523.145282mNWRFalna, Rajasthan
10.1KZQKhimel  09:10-09:10-  2531.2 45277mNWRJawai Bandh, Rajasthan
10.2RANIRani  09:18-09:18-  2537.5 45280mNWRRania, Rajasthan
10.3BGPRBhagwanpura  09:29-09:29-  2545.6 45276mNWRSomesar, Rajasthan
10.4JALJawali  09:39-09:39-  2553.2 45270mNWRRania, Rajasthan
10.5SOSSomesar  09:51-09:51-  2561.6 45269mNWRSomesar, Rajasthan
10.6BWABhinwaliya  09:59-09:59-  2567.6 45268mNWRPindwara, Rajasthan
10.7BGGBanta Raghunathgarh  10:07-10:07-  2573.6 45266mNWRSomesar, Rajasthan
10.8AUWAAuwa (2)  10:16-10:16-  2580.9 45265mNWRSomesar, Rajasthan
11MJMarwar Junction (4)  10:28-10:30-2m--2589.646267mNWRMarwar Junction, Rajasthan
11.1RKZRajkiawas  10:44-10:44-  2600.1 46245mNWRMarwar, Rajasthan
11.2BOMBomadra  10:55-10:55-  2609.3 46234mNWRPali Marwar, Rajasthan
12PMYPali Marwar (2)  11:10-11:13-3m--2620.571221mNWRPali, Rajasthan
12.1KAIKairla  11:26-11:26-  2635.6 71213mNWRPali, Rajasthan
12.2PRDHPirdulesha Halt  11:31-11:31-  2641.3 71192mNWRBandai, Rajasthan
12.3RTRohat  11:37-11:37-  2648.8 71183mNWRSH 64, Rajasthan
12.4LUNILuni Junction  11:48-11:48-  2661.7 71180mNWRLuni, Rajasthan
12.5HWTHanwant  11:53-11:53-  2668.2 71185mNWRBasni, Rajasthan
12.6SZSalawas  12:01-12:01-  2677.5 71193mNWRLuni, Rajasthan
12.7BANEBasni  12:09-12:09-  2686.9 71219mNWRJodhpur, Rajasthan
12.8BGKTBhagat Ki Kothi (3)  12:12-12:12-  2690.0 71229mNWRJodhpur, Rajasthan
13JUJodhpur Junction (5)  12:15-12:25-10m--2693.555241mNWRJodhpur, Rajasthan
13.1RKBRaikabagh Palace Junction (2)  12:28-12:28-  2695.9 55237mNWRJodhpur, Rajasthan
13.2JUCTJodhpur Cantt. (1)  12:34-12:34-  2701.6 55220mNWRJodhpur, Rajasthan
13.3BNOBanar  12:41-12:41-  2707.8 55213mNWRBanar, Rajasthan
13.4JWLJajiwal  12:50-12:50-  2716.0 55228mNWRJodhpur, Rajasthan
13.5AASAsranada  12:59-12:59-  2724.9 55251mNWRState Highway 58, Rajasthan
13.6KSWKheri Salwa  13:09-13:09-  2734.0 55269mNWRJajiwal, Rajasthan
13.7PPRPipar Road Junction  13:16-13:16-  2740.4 55272mNWRState Highway 58, Rajasthan
13.8SWFSathin Road  13:26-13:26-  2749.0 55284mNWRUMED, Rajasthan
13.9UMEDUmed  13:37-13:37-  2759.3 55308mNWRJodhpur, Rajasthan
13.10KXGKharia Khangarh  13:48-13:48-  2769.5 55310mNWRKharia Khangar, Rajasthan
14GOTNGotan  13:56-13:58-2m--2776.746323mNWRGotan, Rajasthan
14.1JOMJogi Magra (1)  14:11-14:11-  2786.5 46335mNWRNagaur, Rajasthan
14.2MTDMerta Road Junction (4)  14:24-14:24-  2796.8 46322mNWRPhalodi, Rajasthan
14.3MCPEMarwar Chapri  14:33-14:33-  2803.7 46317mNWRKheduli, Rajasthan
14.4DSLDeswal  14:43-14:43-  2811.4 46325mNWRNagaur, Rajasthan
14.5KJWKhajwana  14:55-14:55-  2820.5 46329mNWRKhajwana, Rajasthan
14.6MDWMarwar Mundwa  15:15-15:15-  2836.1 46334mNWRMundwa, Rajasthan
15NGONagaur  15:38-15:40-2m--2853.845299mNWRNagaur, Rajasthan
15.1BWSBadwasi  16:00-16:00-  2868.4 45276mNWRMDR 69, Rajasthan
15.2ALAIAlai  16:11-16:11-  2876.7 45289mNWRAlai, Rajasthan
15.3SBLJShri Balaji  16:26-16:26-  2888.2 45296mNWRNational Highway 89, Rajasthan
15.4CLOChilo  16:31-16:31-  2891.7 45304mNWRNational Highway 89, Rajasthan
15.5NOKGarhnokha  16:49-16:49-  2905.5 4597mNWRNokha, Rajasthan
15.6SPOSurpura  17:12-17:12-  2922.7 45286mNWRBikaner, Rajasthan
15.7DSODeshnoke (1)  17:32-17:32-  2937.6 45274mNWRDeshnok, Rajasthan
15.8PAEPalana  17:45-17:45-  2946.9 45263mNWRBikaner, Rajasthan
15.9UMSUdramsar  17:57-17:57-  2955.7 45241mNWRBikaner, Rajasthan
16BKN•Bikaner Junction (6)•  18:15----2969.5-226mNWRBikaner City, Rajasthan
Scroll to Top
Scroll to Bottom